sensor_id;sensor_type;location;lat;lon;timestamp;temperature;humidity
24426;DHT22;12611;44.446;26.000;2023-04-03T00:01:30;13.50;91.50
24426;DHT22;12611;44.446;26.000;2023-04-03T00:03:59;13.60;91.50
24426;DHT22;12611;44.446;26.000;2023-04-03T00:06:27;13.50;91.50
24426;DHT22;12611;44.446;26.000;2023-04-03T00:08:56;13.50;91.50
24426;DHT22;12611;44.446;26.000;2023-04-03T00:11:24;13.50;91.50
24426;DHT22;12611;44.446;26.000;2023-04-03T00:13:54;13.50;91.50
24426;DHT22;12611;44.446;26.000;2023-04-03T00:16:22;13.50;91.50
24426;DHT22;12611;44.446;26.000;2023-04-03T00:18:51;13.40;91.40
24426;DHT22;12611;44.446;26.000;2023-04-03T00:21:19;13.40;91.50
24426;DHT22;12611;44.446;26.000;2023-04-03T00:23:47;13.40;91.50
24426;DHT22;12611;44.446;26.000;2023-04-03T00:26:16;13.40;91.50
24426;DHT22;12611;44.446;26.000;2023-04-03T00:28:44;13.40;91.50
24426;DHT22;12611;44.446;26.000;2023-04-03T00:31:15;13.30;91.40
24426;DHT22;12611;44.446;26.000;2023-04-03T00:33:44;13.30;91.40
24426;DHT22;12611;44.446;26.000;2023-04-03T00:36:13;13.30;91.40
24426;DHT22;12611;44.446;26.000;2023-04-03T00:38:41;13.30;91.40
24426;DHT22;12611;44.446;26.000;2023-04-03T00:41:09;13.30;91.40
24426;DHT22;12611;44.446;26.000;2023-04-03T00:43:38;13.30;91.40
24426;DHT22;12611;44.446;26.000;2023-04-03T00:46:06;13.30;91.30
24426;DHT22;12611;44.446;26.000;2023-04-03T00:48:38;13.30;91.40
24426;DHT22;12611;44.446;26.000;2023-04-03T00:51:11;13.30;91.40
24426;DHT22;12611;44.446;26.000;2023-04-03T00:53:43;13.30;91.40
24426;DHT22;12611;44.446;26.000;2023-04-03T00:56:15;13.30;91.40
24426;DHT22;12611;44.446;26.000;2023-04-03T00:58:48;13.30;91.30
24426;DHT22;12611;44.446;26.000;2023-04-03T01:01:21;13.30;91.30
24426;DHT22;12611;44.446;26.000;2023-04-03T01:03:52;13.30;91.30
24426;DHT22;12611;44.446;26.000;2023-04-03T01:06:24;13.30;91.30
24426;DHT22;12611;44.446;26.000;2023-04-03T01:08:54;13.20;91.20
24426;DHT22;12611;44.446;26.000;2023-04-03T01:11:23;13.20;91.20
24426;DHT22;12611;44.446;26.000;2023-04-03T01:13:52;13.20;91.10
24426;DHT22;12611;44.446;26.000;2023-04-03T01:16:20;13.20;91.10
24426;DHT22;12611;44.446;26.000;2023-04-03T01:18:49;13.20;91.10
24426;DHT22;12611;44.446;26.000;2023-04-03T01:24:34;13.10;91.10
24426;DHT22;12611;44.446;26.000;2023-04-03T01:27:08;13.10;91.00
24426;DHT22;12611;44.446;26.000;2023-04-03T01:29:38;13.00;91.00
24426;DHT22;12611;44.446;26.000;2023-04-03T01:32:08;13.00;91.00
24426;DHT22;12611;44.446;26.000;2023-04-03T01:34:36;13.00;91.00
24426;DHT22;12611;44.446;26.000;2023-04-03T01:37:05;13.00;91.00
24426;DHT22;12611;44.446;26.000;2023-04-03T01:39:33;12.90;90.90
24426;DHT22;12611;44.446;26.000;2023-04-03T01:42:01;12.90;90.90
24426;DHT22;12611;44.446;26.000;2023-04-03T01:44:30;12.90;90.90
24426;DHT22;12611;44.446;26.000;2023-04-03T01:46:58;12.90;90.90
24426;DHT22;12611;44.446;26.000;2023-04-03T01:49:28;12.90;90.90
24426;DHT22;12611;44.446;26.000;2023-04-03T01:51:57;12.80;90.90
24426;DHT22;12611;44.446;26.000;2023-04-03T01:54:25;12.80;90.90
24426;DHT22;12611;44.446;26.000;2023-04-03T01:56:53;12.80;90.90
24426;DHT22;12611;44.446;26.000;2023-04-03T01:59:22;12.80;90.90
24426;DHT22;12611;44.446;26.000;2023-04-03T02:01:50;12.80;90.90
24426;DHT22;12611;44.446;26.000;2023-04-03T02:04:18;12.70;91.00
24426;DHT22;12611;44.446;26.000;2023-04-03T02:06:48;12.70;91.10
24426;DHT22;12611;44.446;26.000;2023-04-03T02:09:16;12.70;91.30
24426;DHT22;12611;44.446;26.000;2023-04-03T02:11:45;12.70;91.50
24426;DHT22;12611;44.446;26.000;2023-04-03T02:14:13;12.70;91.70
24426;DHT22;12611;44.446;26.000;2023-04-03T02:16:41;12.60;91.90
24426;DHT22;12611;44.446;26.000;2023-04-03T02:19:10;12.70;92.10
24426;DHT22;12611;44.446;26.000;2023-04-03T02:21:38;12.70;92.50
24426;DHT22;12611;44.446;26.000;2023-04-03T02:24:08;12.60;92.60
24426;DHT22;12611;44.446;26.000;2023-04-03T02:26:37;12.60;92.60
24426;DHT22;12611;44.446;26.000;2023-04-03T02:29:05;12.60;92.60
24426;DHT22;12611;44.446;26.000;2023-04-03T02:31:33;12.60;92.60
24426;DHT22;12611;44.446;26.000;2023-04-03T02:34:01;12.70;93.00
24426;DHT22;12611;44.446;26.000;2023-04-03T02:36:30;12.70;92.90
24426;DHT22;12611;44.446;26.000;2023-04-03T02:38:58;12.60;92.90
24426;DHT22;12611;44.446;26.000;2023-04-03T02:41:28;12.70;92.90
24426;DHT22;12611;44.446;26.000;2023-04-03T02:44:02;12.60;92.80
24426;DHT22;12611;44.446;26.000;2023-04-03T02:46:31;12.60;92.90
24426;DHT22;12611;44.446;26.000;2023-04-03T02:48:59;12.60;93.00
24426;DHT22;12611;44.446;26.000;2023-04-03T02:51:28;12.60;93.00
24426;DHT22;12611;44.446;26.000;2023-04-03T02:53:56;12.60;93.00
24426;DHT22;12611;44.446;26.000;2023-04-03T02:56:24;12.50;92.90
24426;DHT22;12611;44.446;26.000;2023-04-03T02:58:55;12.50;92.90
24426;DHT22;12611;44.446;26.000;2023-04-03T03:01:23;12.50;92.90
24426;DHT22;12611;44.446;26.000;2023-04-03T03:03:54;12.50;92.90
24426;DHT22;12611;44.446;26.000;2023-04-03T03:06:22;12.50;93.00
24426;DHT22;12611;44.446;26.000;2023-04-03T03:08:51;12.50;93.00
24426;DHT22;12611;44.446;26.000;2023-04-03T03:11:19;12.50;93.10
24426;DHT22;12611;44.446;26.000;2023-04-03T03:13:48;12.50;93.10
24426;DHT22;12611;44.446;26.000;2023-04-03T03:16:18;12.50;93.00
24426;DHT22;12611;44.446;26.000;2023-04-03T03:18:46;12.40;92.80
24426;DHT22;12611;44.446;26.000;2023-04-03T03:21:15;12.40;92.80
24426;DHT22;12611;44.446;26.000;2023-04-03T03:23:43;12.50;92.80
24426;DHT22;12611;44.446;26.000;2023-04-03T03:26:12;12.40;92.70
24426;DHT22;12611;44.446;26.000;2023-04-03T03:28:40;12.40;92.70
24426;DHT22;12611;44.446;26.000;2023-04-03T03:31:09;12.40;92.60
24426;DHT22;12611;44.446;26.000;2023-04-03T03:33:40;12.40;92.60
24426;DHT22;12611;44.446;26.000;2023-04-03T03:36:09;12.40;92.50
24426;DHT22;12611;44.446;26.000;2023-04-03T03:38:37;12.30;92.80
24426;DHT22;12611;44.446;26.000;2023-04-03T03:41:05;12.30;92.40
24426;DHT22;12611;44.446;26.000;2023-04-03T03:43:34;12.30;92.30
24426;DHT22;12611;44.446;26.000;2023-04-03T03:46:02;12.30;92.30
24426;DHT22;12611;44.446;26.000;2023-04-03T03:48:31;12.30;92.30
24426;DHT22;12611;44.446;26.000;2023-04-03T03:51:00;12.30;92.20
24426;DHT22;12611;44.446;26.000;2023-04-03T03:53:29;12.30;92.20
24426;DHT22;12611;44.446;26.000;2023-04-03T03:55:57;12.30;92.20
24426;DHT22;12611;44.446;26.000;2023-04-03T03:58:25;12.30;92.10
24426;DHT22;12611;44.446;26.000;2023-04-03T04:00:54;12.20;92.10
24426;DHT22;12611;44.446;26.000;2023-04-03T04:03:22;12.20;92.10
24426;DHT22;12611;44.446;26.000;2023-04-03T04:05:51;12.20;92.10
24426;DHT22;12611;44.446;26.000;2023-04-03T04:08:21;12.20;92.10
24426;DHT22;12611;44.446;26.000;2023-04-03T04:10:49;12.20;92.00
24426;DHT22;12611;44.446;26.000;2023-04-03T04:13:18;12.20;92.00
24426;DHT22;12611;44.446;26.000;2023-04-03T04:15:46;12.20;92.00
24426;DHT22;12611;44.446;26.000;2023-04-03T04:18:14;12.20;92.00
24426;DHT22;12611;44.446;26.000;2023-04-03T04:20:44;12.20;92.00
24426;DHT22;12611;44.446;26.000;2023-04-03T04:23:13;12.20;92.00
24426;DHT22;12611;44.446;26.000;2023-04-03T04:25:44;12.30;92.10
24426;DHT22;12611;44.446;26.000;2023-04-03T04:28:12;12.30;92.20
24426;DHT22;12611;44.446;26.000;2023-04-03T04:30:41;12.30;92.40
24426;DHT22;12611;44.446;26.000;2023-04-03T04:33:09;12.40;92.60
24426;DHT22;12611;44.446;26.000;2023-04-03T04:35:38;12.40;92.80
24426;DHT22;12611;44.446;26.000;2023-04-03T04:38:07;12.40;93.40
24426;DHT22;12611;44.446;26.000;2023-04-03T04:40:35;12.50;93.40
24426;DHT22;12611;44.446;26.000;2023-04-03T04:43:06;12.60;93.70
24426;DHT22;12611;44.446;26.000;2023-04-03T04:45:34;12.60;94.20
24426;DHT22;12611;44.446;26.000;2023-04-03T04:48:03;12.70;94.50
24426;DHT22;12611;44.446;26.000;2023-04-03T04:50:32;12.70;94.30
24426;DHT22;12611;44.446;26.000;2023-04-03T04:53:00;12.80;94.50
24426;DHT22;12611;44.446;26.000;2023-04-03T04:55:28;12.90;94.70
24426;DHT22;12611;44.446;26.000;2023-04-03T04:57:56;12.90;94.90
24426;DHT22;12611;44.446;26.000;2023-04-03T05:00:26;12.90;94.90
24426;DHT22;12611;44.446;26.000;2023-04-03T05:02:55;12.90;95.40
24426;DHT22;12611;44.446;26.000;2023-04-03T05:05:23;13.00;95.20
24426;DHT22;12611;44.446;26.000;2023-04-03T05:07:51;13.00;95.10
24426;DHT22;12611;44.446;26.000;2023-04-03T05:10:20;13.10;95.00
24426;DHT22;12611;44.446;26.000;2023-04-03T05:12:48;13.10;95.20
24426;DHT22;12611;44.446;26.000;2023-04-03T05:15:16;13.20;95.00
24426;DHT22;12611;44.446;26.000;2023-04-03T05:17:46;13.20;95.00
24426;DHT22;12611;44.446;26.000;2023-04-03T05:20:15;13.20;94.90
24426;DHT22;12611;44.446;26.000;2023-04-03T05:22:43;13.30;94.80
24426;DHT22;12611;44.446;26.000;2023-04-03T05:25:12;13.30;95.20
24426;DHT22;12611;44.446;26.000;2023-04-03T05:27:40;13.40;94.80
24426;DHT22;12611;44.446;26.000;2023-04-03T05:30:09;13.40;94.70
24426;DHT22;12611;44.446;26.000;2023-04-03T05:32:37;13.40;94.60
24426;DHT22;12611;44.446;26.000;2023-04-03T05:35:08;13.50;94.60
24426;DHT22;12611;44.446;26.000;2023-04-03T05:37:37;13.50;94.60
24426;DHT22;12611;44.446;26.000;2023-04-03T05:40:07;13.60;94.40
24426;DHT22;12611;44.446;26.000;2023-04-03T05:42:36;13.50;94.30
24426;DHT22;12611;44.446;26.000;2023-04-03T05:45:05;13.60;94.30
24426;DHT22;12611;44.446;26.000;2023-04-03T05:47:34;13.60;94.30
24426;DHT22;12611;44.446;26.000;2023-04-03T05:50:02;13.60;94.30
24426;DHT22;12611;44.446;26.000;2023-04-03T05:52:35;13.70;94.20
24426;DHT22;12611;44.446;26.000;2023-04-03T05:55:05;13.80;94.00
24426;DHT22;12611;44.446;26.000;2023-04-03T05:57:33;13.70;93.50
24426;DHT22;12611;44.446;26.000;2023-04-03T06:00:03;13.80;93.40
24426;DHT22;12611;44.446;26.000;2023-04-03T06:02:32;13.90;93.40
24426;DHT22;12611;44.446;26.000;2023-04-03T06:05:00;13.90;93.10
24426;DHT22;12611;44.446;26.000;2023-04-03T06:07:29;13.90;92.60
24426;DHT22;12611;44.446;26.000;2023-04-03T06:09:59;13.90;92.50
24426;DHT22;12611;44.446;26.000;2023-04-03T06:12:28;13.90;92.50
24426;DHT22;12611;44.446;26.000;2023-04-03T06:14:56;14.00;92.40
24426;DHT22;12611;44.446;26.000;2023-04-03T06:17:25;14.00;92.20
24426;DHT22;12611;44.446;26.000;2023-04-03T06:19:54;14.00;91.70
24426;DHT22;12611;44.446;26.000;2023-04-03T06:22:22;14.00;91.70
24426;DHT22;12611;44.446;26.000;2023-04-03T06:24:52;14.10;91.60
24426;DHT22;12611;44.446;26.000;2023-04-03T06:27:22;14.10;91.40
24426;DHT22;12611;44.446;26.000;2023-04-03T06:29:50;14.10;91.50
24426;DHT22;12611;44.446;26.000;2023-04-03T06:32:19;14.10;91.40
24426;DHT22;12611;44.446;26.000;2023-04-03T06:34:47;14.10;91.10
24426;DHT22;12611;44.446;26.000;2023-04-03T06:37:17;14.10;91.10
24426;DHT22;12611;44.446;26.000;2023-04-03T06:39:47;14.20;91.00
24426;DHT22;12611;44.446;26.000;2023-04-03T06:42:15;14.10;90.50
24426;DHT22;12611;44.446;26.000;2023-04-03T06:44:45;14.20;90.40
24426;DHT22;12611;44.446;26.000;2023-04-03T06:47:14;14.20;90.30
24426;DHT22;12611;44.446;26.000;2023-04-03T06:49:42;14.10;90.20
24426;DHT22;12611;44.446;26.000;2023-04-03T06:52:11;14.20;90.40
24426;DHT22;12611;44.446;26.000;2023-04-03T06:54:40;14.20;90.40
24426;DHT22;12611;44.446;26.000;2023-04-03T06:57:09;14.20;90.20
24426;DHT22;12611;44.446;26.000;2023-04-03T06:59:37;14.20;90.20
24426;DHT22;12611;44.446;26.000;2023-04-03T07:02:09;14.30;90.20
24426;DHT22;12611;44.446;26.000;2023-04-03T07:04:38;14.40;90.20
24426;DHT22;12611;44.446;26.000;2023-04-03T07:07:07;14.40;90.00
24426;DHT22;12611;44.446;26.000;2023-04-03T07:09:35;14.50;90.10
24426;DHT22;12611;44.446;26.000;2023-04-03T07:12:04;14.60;89.50
24426;DHT22;12611;44.446;26.000;2023-04-03T07:14:32;14.70;89.50
24426;DHT22;12611;44.446;26.000;2023-04-03T07:17:00;14.80;89.70
24426;DHT22;12611;44.446;26.000;2023-04-03T07:19:30;14.90;89.60
24426;DHT22;12611;44.446;26.000;2023-04-03T07:21:58;15.00;89.70
24426;DHT22;12611;44.446;26.000;2023-04-03T07:24:27;15.10;89.40
24426;DHT22;12611;44.446;26.000;2023-04-03T07:26:55;15.20;89.50
24426;DHT22;12611;44.446;26.000;2023-04-03T07:29:24;15.30;89.40
24426;DHT22;12611;44.446;26.000;2023-04-03T07:31:52;15.40;89.10
24426;DHT22;12611;44.446;26.000;2023-04-03T07:34:22;15.50;88.80
24426;DHT22;12611;44.446;26.000;2023-04-03T07:36:52;15.60;88.60
24426;DHT22;12611;44.446;26.000;2023-04-03T07:39:20;15.70;88.60
24426;DHT22;12611;44.446;26.000;2023-04-03T07:41:48;15.70;88.90
24426;DHT22;12611;44.446;26.000;2023-04-03T07:44:16;15.70;86.80
24426;DHT22;12611;44.446;26.000;2023-04-03T07:46:45;15.80;86.60
24426;DHT22;12611;44.446;26.000;2023-04-03T07:49:13;15.80;86.20
24426;DHT22;12611;44.446;26.000;2023-04-03T07:51:42;15.80;85.80
24426;DHT22;12611;44.446;26.000;2023-04-03T07:54:11;15.90;85.80
24426;DHT22;12611;44.446;26.000;2023-04-03T07:56:40;15.90;85.20
24426;DHT22;12611;44.446;26.000;2023-04-03T07:59:09;15.90;85.10
24426;DHT22;12611;44.446;26.000;2023-04-03T08:01:38;16.00;85.10
24426;DHT22;12611;44.446;26.000;2023-04-03T08:04:06;16.00;85.60
24426;DHT22;12611;44.446;26.000;2023-04-03T08:06:35;16.00;85.20
24426;DHT22;12611;44.446;26.000;2023-04-03T08:09:14;16.00;84.50
24426;DHT22;12611;44.446;26.000;2023-04-03T08:11:43;16.00;84.30
24426;DHT22;12611;44.446;26.000;2023-04-03T08:14:12;16.00;84.50
24426;DHT22;12611;44.446;26.000;2023-04-03T08:16:44;16.10;84.40
24426;DHT22;12611;44.446;26.000;2023-04-03T08:19:13;16.20;84.30
24426;DHT22;12611;44.446;26.000;2023-04-03T08:21:53;16.20;84.40
24426;DHT22;12611;44.446;26.000;2023-04-03T08:24:23;16.30;84.30
24426;DHT22;12611;44.446;26.000;2023-04-03T08:26:52;16.30;83.60
24426;DHT22;12611;44.446;26.000;2023-04-03T08:29:20;16.40;83.50
24426;DHT22;12611;44.446;26.000;2023-04-03T08:31:49;16.50;83.60
24426;DHT22;12611;44.446;26.000;2023-04-03T08:34:18;16.50;83.40
24426;DHT22;12611;44.446;26.000;2023-04-03T08:36:46;16.60;83.40
24426;DHT22;12611;44.446;26.000;2023-04-03T08:39:15;16.70;83.20
24426;DHT22;12611;44.446;26.000;2023-04-03T08:41:45;16.80;83.50
24426;DHT22;12611;44.446;26.000;2023-04-03T08:44:21;16.80;83.40
24426;DHT22;12611;44.446;26.000;2023-04-03T08:47:02;16.90;82.10
24426;DHT22;12611;44.446;26.000;2023-04-03T08:49:35;16.90;81.80
24426;DHT22;12611;44.446;26.000;2023-04-03T08:52:08;16.90;81.00
24426;DHT22;12611;44.446;26.000;2023-04-03T08:54:47;17.00;80.90
24426;DHT22;12611;44.446;26.000;2023-04-03T08:57:18;17.10;80.80
24426;DHT22;12611;44.446;26.000;2023-04-03T08:59:48;17.10;81.20
24426;DHT22;12611;44.446;26.000;2023-04-03T09:02:25;17.20;81.50
24426;DHT22;12611;44.446;26.000;2023-04-03T09:04:54;17.30;81.50
24426;DHT22;12611;44.446;26.000;2023-04-03T09:07:31;17.30;81.30
24426;DHT22;12611;44.446;26.000;2023-04-03T09:10:01;17.40;81.10
24426;DHT22;12611;44.446;26.000;2023-04-03T09:12:36;17.50;80.30
24426;DHT22;12611;44.446;26.000;2023-04-03T09:15:13;17.60;80.80
24426;DHT22;12611;44.446;26.000;2023-04-03T09:18:02;17.70;80.80
24426;DHT22;12611;44.446;26.000;2023-04-03T09:20:42;17.80;80.20
24426;DHT22;12611;44.446;26.000;2023-04-03T09:23:22;17.90;80.20
24426;DHT22;12611;44.446;26.000;2023-04-03T09:25:58;18.00;79.70
24426;DHT22;12611;44.446;26.000;2023-04-03T09:28:35;18.10;79.70
24426;DHT22;12611;44.446;26.000;2023-04-03T09:31:21;18.20;79.30
24426;DHT22;12611;44.446;26.000;2023-04-03T09:33:53;18.20;79.10
24426;DHT22;12611;44.446;26.000;2023-04-03T09:36:46;18.30;78.00
24426;DHT22;12611;44.446;26.000;2023-04-03T09:39:17;18.40;77.50
24426;DHT22;12611;44.446;26.000;2023-04-03T09:42:05;18.40;77.50
24426;DHT22;12611;44.446;26.000;2023-04-03T09:44:37;18.50;77.90
24426;DHT22;12611;44.446;26.000;2023-04-03T09:47:19;18.60;76.90
24426;DHT22;12611;44.446;26.000;2023-04-03T09:49:52;18.60;76.30
24426;DHT22;12611;44.446;26.000;2023-04-03T09:52:36;18.60;76.60
24426;DHT22;12611;44.446;26.000;2023-04-03T09:55:07;18.60;74.60
24426;DHT22;12611;44.446;26.000;2023-04-03T09:57:36;18.70;73.80
24426;DHT22;12611;44.446;26.000;2023-04-03T10:00:20;18.70;73.40
24426;DHT22;12611;44.446;26.000;2023-04-03T10:02:51;18.70;73.30
24426;DHT22;12611;44.446;26.000;2023-04-03T10:05:31;18.70;73.10
24426;DHT22;12611;44.446;26.000;2023-04-03T10:08:22;18.80;73.90
24426;DHT22;12611;44.446;26.000;2023-04-03T10:11:10;18.80;73.50
24426;DHT22;12611;44.446;26.000;2023-04-03T10:13:53;18.90;73.00
24426;DHT22;12611;44.446;26.000;2023-04-03T10:16:26;18.90;73.50
24426;DHT22;12611;44.446;26.000;2023-04-03T10:19:06;19.00;73.50
24426;DHT22;12611;44.446;26.000;2023-04-03T10:21:45;19.00;73.60
24426;DHT22;12611;44.446;26.000;2023-04-03T10:24:23;19.10;73.70
24426;DHT22;12611;44.446;26.000;2023-04-03T10:26:58;19.10;73.50
24426;DHT22;12611;44.446;26.000;2023-04-03T10:29:38;19.20;73.30
24426;DHT22;12611;44.446;26.000;2023-04-03T10:32:27;19.30;73.40
24426;DHT22;12611;44.446;26.000;2023-04-03T10:35:04;19.30;73.10
24426;DHT22;12611;44.446;26.000;2023-04-03T10:37:42;19.40;73.50
24426;DHT22;12611;44.446;26.000;2023-04-03T10:40:24;19.40;72.90
24426;DHT22;12611;44.446;26.000;2023-04-03T10:43:03;19.50;73.80
24426;DHT22;12611;44.446;26.000;2023-04-03T10:45:48;19.50;73.00
24426;DHT22;12611;44.446;26.000;2023-04-03T10:48:29;19.60;72.90
24426;DHT22;12611;44.446;26.000;2023-04-03T10:51:06;19.70;72.80
24426;DHT22;12611;44.446;26.000;2023-04-03T10:53:43;19.70;72.50
24426;DHT22;12611;44.446;26.000;2023-04-03T10:56:15;19.70;71.10
24426;DHT22;12611;44.446;26.000;2023-04-03T10:58:49;19.70;71.00
24426;DHT22;12611;44.446;26.000;2023-04-03T11:01:23;19.70;71.20
24426;DHT22;12611;44.446;26.000;2023-04-03T11:03:56;19.80;71.10
24426;DHT22;12611;44.446;26.000;2023-04-03T11:06:28;19.80;71.20
24426;DHT22;12611;44.446;26.000;2023-04-03T11:09:02;19.80;70.80
24426;DHT22;12611;44.446;26.000;2023-04-03T11:11:35;19.90;70.80
24426;DHT22;12611;44.446;26.000;2023-04-03T11:14:11;19.80;71.20
24426;DHT22;12611;44.446;26.000;2023-04-03T11:16:45;19.80;70.90
24426;DHT22;12611;44.446;26.000;2023-04-03T11:19:29;19.80;71.30
24426;DHT22;12611;44.446;26.000;2023-04-03T11:22:08;19.80;71.30
24426;DHT22;12611;44.446;26.000;2023-04-03T11:24:40;19.90;71.50
24426;DHT22;12611;44.446;26.000;2023-04-03T11:27:15;19.90;71.50
24426;DHT22;12611;44.446;26.000;2023-04-03T11:29:50;19.90;71.50
24426;DHT22;12611;44.446;26.000;2023-04-03T11:32:45;19.90;70.60
24426;DHT22;12611;44.446;26.000;2023-04-03T11:35:20;19.90;70.50
24426;DHT22;12611;44.446;26.000;2023-04-03T11:37:51;20.10;71.20
24426;DHT22;12611;44.446;26.000;2023-04-03T11:40:24;20.10;70.30
24426;DHT22;12611;44.446;26.000;2023-04-03T11:42:55;20.20;70.40
24426;DHT22;12611;44.446;26.000;2023-04-03T11:45:36;20.30;70.10
24426;DHT22;12611;44.446;26.000;2023-04-03T11:48:41;20.20;69.90
24426;DHT22;12611;44.446;26.000;2023-04-03T11:51:00;20.20;69.90
24426;DHT22;12611;44.446;26.000;2023-04-03T11:53:32;20.20;69.40
24426;DHT22;12611;44.446;26.000;2023-04-03T11:56:29;20.20;69.40
24426;DHT22;12611;44.446;26.000;2023-04-03T11:59:23;20.20;69.10
24426;DHT22;12611;44.446;26.000;2023-04-03T12:01:53;20.20;68.80
24426;DHT22;12611;44.446;26.000;2023-04-03T12:04:23;20.20;69.40
24426;DHT22;12611;44.446;26.000;2023-04-03T12:07:13;20.10;69.20
24426;DHT22;12611;44.446;26.000;2023-04-03T12:10:18;20.10;69.80
24426;DHT22;12611;44.446;26.000;2023-04-03T12:13:00;20.00;69.70
24426;DHT22;12611;44.446;26.000;2023-04-03T12:15:50;20.00;69.60
24426;DHT22;12611;44.446;26.000;2023-04-03T12:22:20;20.10;69.90
24426;DHT22;12611;44.446;26.000;2023-04-03T12:24:50;20.00;68.40
24426;DHT22;12611;44.446;26.000;2023-04-03T12:27:33;19.90;68.80
24426;DHT22;12611;44.446;26.000;2023-04-03T12:30:15;19.90;69.30
24426;DHT22;12611;44.446;26.000;2023-04-03T12:33:12;19.80;69.80
24426;DHT22;12611;44.446;26.000;2023-04-03T12:35:51;19.80;69.80
24426;DHT22;12611;44.446;26.000;2023-04-03T12:38:52;19.80;70.10
24426;DHT22;12611;44.446;26.000;2023-04-03T12:41:33;19.70;69.40
24426;DHT22;12611;44.446;26.000;2023-04-03T12:44:21;19.80;69.70
24426;DHT22;12611;44.446;26.000;2023-04-03T12:46:53;19.70;69.70
24426;DHT22;12611;44.446;26.000;2023-04-03T12:49:35;19.80;69.90
24426;DHT22;12611;44.446;26.000;2023-04-03T12:52:06;19.70;69.90
24426;DHT22;12611;44.446;26.000;2023-04-03T12:54:46;19.70;70.40
24426;DHT22;12611;44.446;26.000;2023-04-03T12:57:18;19.70;70.50
24426;DHT22;12611;44.446;26.000;2023-04-03T12:59:47;19.60;70.70
24426;DHT22;12611;44.446;26.000;2023-04-03T13:02:21;19.70;70.50
24426;DHT22;12611;44.446;26.000;2023-04-03T13:04:53;19.60;70.70
24426;DHT22;12611;44.446;26.000;2023-04-03T13:07:23;19.50;70.80
24426;DHT22;12611;44.446;26.000;2023-04-03T13:10:13;19.40;71.40
24426;DHT22;12611;44.446;26.000;2023-04-03T13:12:50;19.40;71.50
24426;DHT22;12611;44.446;26.000;2023-04-03T13:15:21;19.40;71.70
24426;DHT22;12611;44.446;26.000;2023-04-03T13:17:50;19.40;71.80
24426;DHT22;12611;44.446;26.000;2023-04-03T13:20:23;19.30;71.00
24426;DHT22;12611;44.446;26.000;2023-04-03T13:23:00;19.30;71.10
24426;DHT22;12611;44.446;26.000;2023-04-03T13:25:40;19.30;71.70
24426;DHT22;12611;44.446;26.000;2023-04-03T13:28:18;19.30;71.40
24426;DHT22;12611;44.446;26.000;2023-04-03T13:31:00;19.20;71.80
24426;DHT22;12611;44.446;26.000;2023-04-03T13:33:31;19.10;71.60
24426;DHT22;12611;44.446;26.000;2023-04-03T13:36:07;19.10;72.00
24426;DHT22;12611;44.446;26.000;2023-04-03T13:38:39;19.10;72.00
24426;DHT22;12611;44.446;26.000;2023-04-03T13:41:25;19.10;72.30
24426;DHT22;12611;44.446;26.000;2023-04-03T13:43:54;19.10;72.50
24426;DHT22;12611;44.446;26.000;2023-04-03T13:46:36;19.10;72.90
24426;DHT22;12611;44.446;26.000;2023-04-03T13:49:19;19.10;73.00
24426;DHT22;12611;44.446;26.000;2023-04-03T13:51:52;19.10;73.30
24426;DHT22;12611;44.446;26.000;2023-04-03T13:54:35;19.00;73.20
24426;DHT22;12611;44.446;26.000;2023-04-03T13:57:16;19.00;73.00
24426;DHT22;12611;44.446;26.000;2023-04-03T13:59:44;19.00;73.20
24426;DHT22;12611;44.446;26.000;2023-04-03T14:02:17;19.00;72.80
24426;DHT22;12611;44.446;26.000;2023-04-03T14:04:50;19.00;72.70
24426;DHT22;12611;44.446;26.000;2023-04-03T14:07:20;18.90;72.60
24426;DHT22;12611;44.446;26.000;2023-04-03T14:09:48;18.90;72.70
24426;DHT22;12611;44.446;26.000;2023-04-03T14:12:24;18.80;73.00
24426;DHT22;12611;44.446;26.000;2023-04-03T14:14:59;18.80;73.30
24426;DHT22;12611;44.446;26.000;2023-04-03T14:17:28;18.70;72.70
24426;DHT22;12611;44.446;26.000;2023-04-03T14:19:58;18.70;72.50
24426;DHT22;12611;44.446;26.000;2023-04-03T14:22:31;18.70;72.80
24426;DHT22;12611;44.446;26.000;2023-04-03T14:25:00;18.60;72.70
24426;DHT22;12611;44.446;26.000;2023-04-03T14:27:35;18.60;72.80
24426;DHT22;12611;44.446;26.000;2023-04-03T14:30:06;18.60;73.00
24426;DHT22;12611;44.446;26.000;2023-04-03T14:32:35;18.60;73.70
24426;DHT22;12611;44.446;26.000;2023-04-03T14:35:04;18.50;74.00
24426;DHT22;12611;44.446;26.000;2023-04-03T14:37:33;18.40;73.80
24426;DHT22;12611;44.446;26.000;2023-04-03T14:40:04;18.40;74.20
24426;DHT22;12611;44.446;26.000;2023-04-03T14:42:36;18.40;74.40
24426;DHT22;12611;44.446;26.000;2023-04-03T14:45:07;18.40;74.60
24426;DHT22;12611;44.446;26.000;2023-04-03T14:47:40;18.30;74.10
24426;DHT22;12611;44.446;26.000;2023-04-03T14:50:13;18.30;73.80
24426;DHT22;12611;44.446;26.000;2023-04-03T14:52:44;18.30;74.00
24426;DHT22;12611;44.446;26.000;2023-04-03T14:55:15;18.20;73.80
24426;DHT22;12611;44.446;26.000;2023-04-03T14:57:45;18.20;73.80
24426;DHT22;12611;44.446;26.000;2023-04-03T15:00:16;18.20;74.50
24426;DHT22;12611;44.446;26.000;2023-04-03T15:02:45;18.10;74.60
24426;DHT22;12611;44.446;26.000;2023-04-03T15:05:15;18.10;74.30
24426;DHT22;12611;44.446;26.000;2023-04-03T15:07:47;18.00;74.20
24426;DHT22;12611;44.446;26.000;2023-04-03T15:10:20;17.90;74.20
24426;DHT22;12611;44.446;26.000;2023-04-03T15:12:50;17.80;74.80
24426;DHT22;12611;44.446;26.000;2023-04-03T15:15:20;17.80;74.90
24426;DHT22;12611;44.446;26.000;2023-04-03T15:17:52;17.80;75.40
24426;DHT22;12611;44.446;26.000;2023-04-03T15:20:24;17.80;75.60
24426;DHT22;12611;44.446;26.000;2023-04-03T15:22:54;17.70;75.90
24426;DHT22;12611;44.446;26.000;2023-04-03T15:25:24;17.60;76.10
24426;DHT22;12611;44.446;26.000;2023-04-03T15:27:54;17.70;76.40
24426;DHT22;12611;44.446;26.000;2023-04-03T15:30:23;17.60;76.70
24426;DHT22;12611;44.446;26.000;2023-04-03T15:32:52;17.70;76.70
24426;DHT22;12611;44.446;26.000;2023-04-03T15:35:21;17.60;77.50
24426;DHT22;12611;44.446;26.000;2023-04-03T15:37:50;17.50;77.60
24426;DHT22;12611;44.446;26.000;2023-04-03T15:40:18;17.60;77.40
24426;DHT22;12611;44.446;26.000;2023-04-03T15:42:48;17.60;77.80
24426;DHT22;12611;44.446;26.000;2023-04-03T15:45:20;17.50;78.20
24426;DHT22;12611;44.446;26.000;2023-04-03T15:47:49;17.50;78.60
24426;DHT22;12611;44.446;26.000;2023-04-03T15:50:18;17.50;78.60
24426;DHT22;12611;44.446;26.000;2023-04-03T15:52:46;17.40;78.50